sensor_id;sensor_type;location;lat;lon;timestamp;pressure;altitude;pressure_sealevel;temperature;humidity
59375;BME280;45172;55.006;73.460;2022-09-21T00:23:44;101021.50;;;11.50;nan
59375;BME280;45172;55.006;73.460;2022-09-21T00:26:13;101027.69;;;11.50;nan
59375;BME280;45172;55.006;73.460;2022-09-21T00:28:45;101035.06;;;11.26;nan
59375;BME280;45172;55.006;73.460;2022-09-21T00:31:21;101031.00;;;11.40;nan
59375;BME280;45172;55.006;73.460;2022-09-21T00:33:53;101024.88;;;11.43;nan
59375;BME280;45172;55.006;73.460;2022-09-21T00:36:22;101028.38;;;11.42;nan
59375;BME280;45172;55.006;73.460;2022-09-21T00:39:00;101026.00;;;11.16;nan
59375;BME280;45172;55.006;73.460;2022-09-21T00:41:28;101027.34;;;11.35;nan
59375;BME280;45172;55.006;73.460;2022-09-21T00:44:30;101029.88;;;11.30;nan
59375;BME280;45172;55.006;73.460;2022-09-21T00:47:02;101030.09;;;11.40;nan
59375;BME280;45172;55.006;73.460;2022-09-21T00:49:29;101028.31;;;11.38;nan
59375;BME280;45172;55.006;73.460;2022-09-21T00:51:58;101013.09;;;11.30;nan
59375;BME280;45172;55.006;73.460;2022-09-21T00:54:42;101023.00;;;11.38;nan
59375;BME280;45172;55.006;73.460;2022-09-21T00:57:09;101024.97;;;11.09;nan
59375;BME280;45172;55.006;73.460;2022-09-21T00:59:37;101023.06;;;11.03;nan
59375;BME280;45172;55.006;73.460;2022-09-21T01:02:04;101035.19;;;11.30;nan
59375;BME280;45172;55.006;73.460;2022-09-21T01:04:31;101032.53;;;11.30;nan
59375;BME280;45172;55.006;73.460;2022-09-21T01:06:59;101028.25;;;11.35;nan
59375;BME280;45172;55.006;73.460;2022-09-21T01:09:27;101027.56;;;11.07;nan
59375;BME280;45172;55.006;73.460;2022-09-21T01:14:59;101024.06;;;11.08;nan
59375;BME280;45172;55.006;73.460;2022-09-21T01:17:55;101037.81;;;11.29;nan
59375;BME280;45172;55.006;73.460;2022-09-21T01:23:23;101029.56;;;11.16;nan
59375;BME280;45172;55.006;73.460;2022-09-21T01:31:22;101036.41;;;11.45;nan
59375;BME280;45172;55.006;73.460;2022-09-21T02:06:51;101047.84;;;12.73;nan
59375;BME280;45172;55.006;73.460;2022-09-21T02:09:28;101043.72;;;12.89;nan
59375;BME280;45172;55.006;73.460;2022-09-21T02:14:27;101044.44;;;13.34;nan
59375;BME280;45172;55.006;73.460;2022-09-21T02:30:14;101038.00;;;14.59;nan
59375;BME280;45172;55.006;73.460;2022-09-21T02:35:33;101035.69;;;14.91;nan
59375;BME280;45172;55.006;73.460;2022-09-21T02:38:14;101030.47;;;15.07;nan
59375;BME280;45172;55.006;73.460;2022-09-21T02:40:59;101031.53;;;15.28;nan
59375;BME280;45172;55.006;73.460;2022-09-21T02:43:42;101033.41;;;15.47;nan
59375;BME280;45172;55.006;73.460;2022-09-21T02:46:17;101021.91;;;15.59;nan
59375;BME280;45172;55.006;73.460;2022-09-21T02:48:56;101031.81;;;15.76;nan
59375;BME280;45172;55.006;73.460;2022-09-21T02:51:31;101031.03;;;15.94;nan
59375;BME280;45172;55.006;73.460;2022-09-21T02:54:10;101031.09;;;16.08;nan
59375;BME280;45172;55.006;73.460;2022-09-21T02:56:38;101034.69;;;16.24;nan
59375;BME280;45172;55.006;73.460;2022-09-21T03:35:56;101027.25;;;18.46;nan
59375;BME280;45172;55.006;73.460;2022-09-21T03:38:22;101031.63;;;18.59;nan
59375;BME280;45172;55.006;73.460;2022-09-21T03:40:50;101028.84;;;18.70;nan
59375;BME280;45172;55.006;73.460;2022-09-21T03:43:22;101024.31;;;18.80;nan
59375;BME280;45172;55.006;73.460;2022-09-21T03:45:48;101025.16;;;18.90;nan
59375;BME280;45172;55.006;73.460;2022-09-21T03:48:15;101024.19;;;19.02;nan
59375;BME280;45172;55.006;73.460;2022-09-21T03:50:41;101030.28;;;19.20;nan
59375;BME280;45172;55.006;73.460;2022-09-21T03:53:07;101029.25;;;19.33;nan
59375;BME280;45172;55.006;73.460;2022-09-21T03:55:35;101014.03;;;19.34;nan
59375;BME280;45172;55.006;73.460;2022-09-21T03:58:02;101019.19;;;19.54;nan
59375;BME280;45172;55.006;73.460;2022-09-21T04:03:23;101024.28;;;19.77;nan
59375;BME280;45172;55.006;73.460;2022-09-21T04:05:49;101028.66;;;19.88;nan
59375;BME280;45172;55.006;73.460;2022-09-21T04:08:15;101041.97;;;20.02;nan
59375;BME280;45172;55.006;73.460;2022-09-21T04:10:41;101024.91;;;20.04;nan
59375;BME280;45172;55.006;73.460;2022-09-21T04:13:08;101031.78;;;20.24;nan
59375;BME280;45172;55.006;73.460;2022-09-21T04:15:35;101031.69;;;20.32;nan
59375;BME280;45172;55.006;73.460;2022-09-21T04:18:01;100988.75;;;20.24;nan
59375;BME280;45172;55.006;73.460;2022-09-21T04:20:30;101030.44;;;20.56;nan
59375;BME280;45172;55.006;73.460;2022-09-21T04:22:57;101030.25;;;20.67;nan
59375;BME280;45172;55.006;73.460;2022-09-21T04:25:23;100996.28;;;20.60;nan
59375;BME280;45172;55.006;73.460;2022-09-21T04:27:49;101028.09;;;20.94;nan
59375;BME280;45172;55.006;73.460;2022-09-21T04:30:17;101026.06;;;21.07;nan
59375;BME280;45172;55.006;73.460;2022-09-21T04:32:43;101027.66;;;21.19;nan
59375;BME280;45172;55.006;73.460;2022-09-21T04:35:09;101020.28;;;21.30;nan
59375;BME280;45172;55.006;73.460;2022-09-21T04:37:35;101012.09;;;21.35;nan
59375;BME280;45172;55.006;73.460;2022-09-21T04:40:03;101027.09;;;21.48;nan
59375;BME280;45172;55.006;73.460;2022-09-21T04:42:29;101025.00;;;21.65;nan
59375;BME280;45172;55.006;73.460;2022-09-21T04:44:55;101014.13;;;21.71;nan
59375;BME280;45172;55.006;73.460;2022-09-21T04:47:21;101017.44;;;21.85;nan
59375;BME280;45172;55.006;73.460;2022-09-21T04:49:49;101010.06;;;21.94;nan
59375;BME280;45172;55.006;73.460;2022-09-21T04:52:19;101015.16;;;22.08;nan
59375;BME280;45172;55.006;73.460;2022-09-21T04:54:49;101022.09;;;22.18;nan
59375;BME280;45172;55.006;73.460;2022-09-21T04:57:16;101015.59;;;22.28;nan
59375;BME280;45172;55.006;73.460;2022-09-21T04:59:41;101024.13;;;22.49;nan
59375;BME280;45172;55.006;73.460;2022-09-21T05:02:07;101018.44;;;22.62;nan
59375;BME280;45172;55.006;73.460;2022-09-21T05:04:34;101013.59;;;22.76;nan
59375;BME280;45172;55.006;73.460;2022-09-21T05:07:10;101008.06;;;22.82;nan
59375;BME280;45172;55.006;73.460;2022-09-21T05:09:36;101002.28;;;22.96;nan
59375;BME280;45172;55.006;73.460;2022-09-21T05:12:20;100979.84;;;22.94;nan
59375;BME280;45172;55.006;73.460;2022-09-21T05:14:46;100994.81;;;23.08;nan
59375;BME280;45172;55.006;73.460;2022-09-21T05:17:17;100994.34;;;23.25;nan
59375;BME280;45172;55.006;73.460;2022-09-21T05:19:47;101006.63;;;23.38;nan
59375;BME280;45172;55.006;73.460;2022-09-21T05:22:19;101000.88;;;23.51;nan
59375;BME280;45172;55.006;73.460;2022-09-21T05:24:45;100987.28;;;23.52;nan
59375;BME280;45172;55.006;73.460;2022-09-21T05:27:12;101005.44;;;23.80;nan
59375;BME280;45172;55.006;73.460;2022-09-21T05:29:39;101006.88;;;23.92;nan
59375;BME280;45172;55.006;73.460;2022-09-21T05:32:19;100996.63;;;24.05;nan
59375;BME280;45172;55.006;73.460;2022-09-21T05:37:56;100992.16;;;24.33;nan
59375;BME280;45172;55.006;73.460;2022-09-21T05:40:24;100985.25;;;24.51;nan
59375;BME280;45172;55.006;73.460;2022-09-21T05:42:51;100986.59;;;24.66;nan
59375;BME280;45172;55.006;73.460;2022-09-21T05:45:18;100988.00;;;24.78;nan
59375;BME280;45172;55.006;73.460;2022-09-21T05:56:47;100974.84;;;25.20;nan
59375;BME280;45172;55.006;73.460;2022-09-21T06:05:14;100946.00;;;25.42;nan
59375;BME280;45172;55.006;73.460;2022-09-21T06:07:46;100968.56;;;25.68;nan
59375;BME280;45172;55.006;73.460;2022-09-21T06:10:17;100939.00;;;25.62;nan
59375;BME280;45172;55.006;73.460;2022-09-21T06:12:44;100932.31;;;25.71;nan
59375;BME280;45172;55.006;73.460;2022-09-21T06:15:13;100961.31;;;25.93;nan
59375;BME280;45172;55.006;73.460;2022-09-21T06:17:39;100945.69;;;25.99;nan
59375;BME280;45172;55.006;73.460;2022-09-21T06:20:06;100950.63;;;26.12;nan
59375;BME280;45172;55.006;73.460;2022-09-21T06:22:37;100951.16;;;26.22;nan
59375;BME280;45172;55.006;73.460;2022-09-21T06:25:08;100939.16;;;26.28;nan
59375;BME280;45172;55.006;73.460;2022-09-21T06:27:34;100941.44;;;26.38;nan
59375;BME280;45172;55.006;73.460;2022-09-21T06:30:00;100921.16;;;26.47;nan
59375;BME280;45172;55.006;73.460;2022-09-21T06:32:27;100934.34;;;26.57;nan
59375;BME280;45172;55.006;73.460;2022-09-21T06:34:53;100930.47;;;26.62;nan
59375;BME280;45172;55.006;73.460;2022-09-21T06:37:20;100932.88;;;26.70;nan
59375;BME280;45172;55.006;73.460;2022-09-21T06:39:46;100925.19;;;26.80;nan
59375;BME280;45172;55.006;73.460;2022-09-21T06:42:20;100925.81;;;26.87;nan
59375;BME280;45172;55.006;73.460;2022-09-21T06:44:46;100914.84;;;26.90;nan
59375;BME280;45172;55.006;73.460;2022-09-21T06:47:12;100923.16;;;27.07;nan
59375;BME280;45172;55.006;73.460;2022-09-21T06:49:48;100901.31;;;27.09;nan
59375;BME280;45172;55.006;73.460;2022-09-21T06:52:14;100911.47;;;27.25;nan
59375;BME280;45172;55.006;73.460;2022-09-21T06:54:40;100915.47;;;27.37;nan
59375;BME280;45172;55.006;73.460;2022-09-21T06:57:11;100890.41;;;27.30;nan
59375;BME280;45172;55.006;73.460;2022-09-21T06:59:37;100909.47;;;27.49;nan
59375;BME280;45172;55.006;73.460;2022-09-21T07:02:14;100905.25;;;27.62;nan
59375;BME280;45172;55.006;73.460;2022-09-21T07:04:41;100904.00;;;27.70;nan
59375;BME280;45172;55.006;73.460;2022-09-21T07:07:18;100891.16;;;27.73;nan
59375;BME280;45172;55.006;73.460;2022-09-21T07:09:44;100874.22;;;27.67;nan
59375;BME280;45172;55.006;73.460;2022-09-21T07:12:10;100895.91;;;27.87;nan
59375;BME280;45172;55.006;73.460;2022-09-21T07:14:36;100898.19;;;27.97;nan
59375;BME280;45172;55.006;73.460;2022-09-21T07:17:02;100885.16;;;28.03;nan
59375;BME280;45172;55.006;73.460;2022-09-21T07:19:29;100877.78;;;28.06;nan
59375;BME280;45172;55.006;73.460;2022-09-21T07:21:54;100873.06;;;28.09;nan
59375;BME280;45172;55.006;73.460;2022-09-21T07:24:20;100876.28;;;28.17;nan
59375;BME280;45172;55.006;73.460;2022-09-21T07:26:57;100870.47;;;28.25;nan
59375;BME280;45172;55.006;73.460;2022-09-21T07:29:22;100851.56;;;28.22;nan
59375;BME280;45172;55.006;73.460;2022-09-21T07:31:48;100861.84;;;28.35;nan
59375;BME280;45172;55.006;73.460;2022-09-21T07:34:15;100869.38;;;28.47;nan
59375;BME280;45172;55.006;73.460;2022-09-21T07:36:50;100865.53;;;28.51;nan
59375;BME280;45172;55.006;73.460;2022-09-21T07:39:16;100851.34;;;28.44;nan
59375;BME280;45172;55.006;73.460;2022-09-21T07:41:42;100844.06;;;28.45;nan
59375;BME280;45172;55.006;73.460;2022-09-21T07:44:08;100862.03;;;28.67;nan
59375;BME280;45172;55.006;73.460;2022-09-21T07:46:34;100845.19;;;28.58;nan
59375;BME280;45172;55.006;73.460;2022-09-21T07:49:01;100797.53;;;28.32;nan
59375;BME280;45172;55.006;73.460;2022-09-21T07:51:29;100803.53;;;28.39;nan
59375;BME280;45172;55.006;73.460;2022-09-21T07:53:56;100754.34;;;28.24;nan
59375;BME280;45172;55.006;73.460;2022-09-21T07:56:23;100745.44;;;28.21;nan
59375;BME280;45172;55.006;73.460;2022-09-21T07:58:49;100772.03;;;28.33;nan
59375;BME280;45172;55.006;73.460;2022-09-21T08:01:36;100845.00;;;28.79;nan
59375;BME280;45172;55.006;73.460;2022-09-21T08:04:03;100846.69;;;28.82;nan
59375;BME280;45172;55.006;73.460;2022-09-21T08:06:30;100848.06;;;28.91;nan
59375;BME280;45172;55.006;73.460;2022-09-21T08:08:58;100838.03;;;28.91;nan
59375;BME280;45172;55.006;73.460;2022-09-21T08:11:26;100843.88;;;29.01;nan
59375;BME280;45172;55.006;73.460;2022-09-21T08:13:58;100835.53;;;29.04;nan
59375;BME280;45172;55.006;73.460;2022-09-21T08:16:25;100838.88;;;29.09;nan
59375;BME280;45172;55.006;73.460;2022-09-21T08:18:52;100815.56;;;29.04;nan
59375;BME280;45172;55.006;73.460;2022-09-21T08:21:18;100820.63;;;28.94;nan
59375;BME280;45172;55.006;73.460;2022-09-21T08:23:50;100836.25;;;29.08;nan
59375;BME280;45172;55.006;73.460;2022-09-21T08:26:17;100832.00;;;29.02;nan
59375;BME280;45172;55.006;73.460;2022-09-21T08:28:45;100828.41;;;29.02;nan
59375;BME280;45172;55.006;73.460;2022-09-21T08:31:24;100802.94;;;28.85;nan
59375;BME280;45172;55.006;73.460;2022-09-21T08:33:59;100825.94;;;28.97;nan
59375;BME280;45172;55.006;73.460;2022-09-21T08:36:26;100814.91;;;28.98;nan
59375;BME280;45172;55.006;73.460;2022-09-21T08:38:53;100822.38;;;29.12;nan
59375;BME280;45172;55.006;73.460;2022-09-21T08:42:00;100827.56;;;29.17;nan
59375;BME280;45172;55.006;73.460;2022-09-21T08:44:38;100824.50;;;29.23;nan
59375;BME280;45172;55.006;73.460;2022-09-21T08:49:57;100814.03;;;29.32;nan
59375;BME280;45172;55.006;73.460;2022-09-21T08:52:26;100817.47;;;29.35;nan
59375;BME280;45172;55.006;73.460;2022-09-21T08:55:01;100807.75;;;29.30;nan
59375;BME280;45172;55.006;73.460;2022-09-21T08:57:31;100800.72;;;29.25;nan
59375;BME280;45172;55.006;73.460;2022-09-21T08:59:58;100776.72;;;29.16;nan
59375;BME280;45172;55.006;73.460;2022-09-21T09:02:39;100812.00;;;29.35;nan
59375;BME280;45172;55.006;73.460;2022-09-21T09:05:31;100798.25;;;29.37;nan
59375;BME280;45172;55.006;73.460;2022-09-21T09:19:37;100811.97;;;29.19;nan
59375;BME280;45172;55.006;73.460;2022-09-21T09:22:09;100805.75;;;29.17;nan
59375;BME280;45172;55.006;73.460;2022-09-21T09:24:49;100803.00;;;29.17;nan
59375;BME280;45172;55.006;73.460;2022-09-21T09:27:54;100807.91;;;29.10;nan
59375;BME280;45172;55.006;73.460;2022-09-21T09:30:24;100794.00;;;28.99;nan
59375;BME280;45172;55.006;73.460;2022-09-21T09:32:57;100801.94;;;29.04;nan
59375;BME280;45172;55.006;73.460;2022-09-21T09:35:50;100805.06;;;28.96;nan
59375;BME280;45172;55.006;73.460;2022-09-21T09:38:27;100791.63;;;28.93;nan
59375;BME280;45172;55.006;73.460;2022-09-21T09:44:36;100795.00;;;28.63;nan
59375;BME280;45172;55.006;73.460;2022-09-21T09:53:05;100786.88;;;28.27;nan
59375;BME280;45172;55.006;73.460;2022-09-21T09:55:47;100794.16;;;28.27;nan
59375;BME280;45172;55.006;73.460;2022-09-21T09:58:23;100791.50;;;28.25;nan
59375;BME280;45172;55.006;73.460;2022-09-21T10:01:00;100779.97;;;28.20;nan
59375;BME280;45172;55.006;73.460;2022-09-21T10:03:29;100788.16;;;28.20;nan
59375;BME280;45172;55.006;73.460;2022-09-21T10:06:00;100777.59;;;28.12;nan
59375;BME280;45172;55.006;73.460;2022-09-21T10:08:43;100780.41;;;28.11;nan
59375;BME280;45172;55.006;73.460;2022-09-21T10:11:11;100778.03;;;28.05;nan
59375;BME280;45172;55.006;73.460;2022-09-21T10:13:42;100769.38;;;27.96;nan
59375;BME280;45172;55.006;73.460;2022-09-21T10:16:13;100778.31;;;27.98;nan
59375;BME280;45172;55.006;73.460;2022-09-21T10:18:46;100729.75;;;27.71;nan
59375;BME280;45172;55.006;73.460;2022-09-21T10:21:22;100775.91;;;27.92;nan
59375;BME280;45172;55.006;73.460;2022-09-21T10:24:19;100768.28;;;27.81;nan
59375;BME280;45172;55.006;73.460;2022-09-21T10:26:54;100762.91;;;27.80;nan
59375;BME280;45172;55.006;73.460;2022-09-21T10:32:00;100761.38;;;27.74;nan
59375;BME280;45172;55.006;73.460;2022-09-21T10:34:31;100768.03;;;27.68;nan
59375;BME280;45172;55.006;73.460;2022-09-21T10:37:00;100760.88;;;27.66;nan
59375;BME280;45172;55.006;73.460;2022-09-21T10:39:31;100758.34;;;27.62;nan
59375;BME280;45172;55.006;73.460;2022-09-21T10:42:15;100759.38;;;27.60;nan
59375;BME280;45172;55.006;73.460;2022-09-21T10:44:47;100753.13;;;27.58;nan
59375;BME280;45172;55.006;73.460;2022-09-21T10:47:39;100766.78;;;27.56;nan
59375;BME280;45172;55.006;73.460;2022-09-21T10:58:22;100755.91;;;27.37;nan
59375;BME280;45172;55.006;73.460;2022-09-21T11:00:49;100757.97;;;27.32;nan
59375;BME280;45172;55.006;73.460;2022-09-21T11:05:58;100757.31;;;27.27;nan
59375;BME280;45172;55.006;73.460;2022-09-21T11:08:42;100731.28;;;27.02;nan
59375;BME280;45172;55.006;73.460;2022-09-21T11:20:25;100753.72;;;27.07;nan
59375;BME280;45172;55.006;73.460;2022-09-21T11:25:42;100750.53;;;26.97;nan
59375;BME280;45172;55.006;73.460;2022-09-21T11:28:19;100742.25;;;27.00;nan
59375;BME280;45172;55.006;73.460;2022-09-21T11:34:15;100739.41;;;26.83;nan
59375;BME280;45172;55.006;73.460;2022-09-21T11:42:49;100738.50;;;26.63;nan
59375;BME280;45172;55.006;73.460;2022-09-21T11:48:48;100731.84;;;26.49;nan
59375;BME280;45172;55.006;73.460;2022-09-21T12:19:30;100719.44;;;25.13;nan
59375;BME280;45172;55.006;73.460;2022-09-21T12:22:14;100706.59;;;24.94;nan
59375;BME280;45172;55.006;73.460;2022-09-21T12:24:56;100727.44;;;24.92;nan
59375;BME280;45172;55.006;73.460;2022-09-21T12:27:36;100720.78;;;24.77;nan
59375;BME280;45172;55.006;73.460;2022-09-21T12:30:15;100710.19;;;24.45;nan
59375;BME280;45172;55.006;73.460;2022-09-21T12:35:40;100713.56;;;24.00;nan
59375;BME280;45172;55.006;73.460;2022-09-21T12:38:29;100728.13;;;23.70;nan
59375;BME280;45172;55.006;73.460;2022-09-21T12:46:42;100730.63;;;23.18;nan
59375;BME280;45172;55.006;73.460;2022-09-21T12:49:19;100729.44;;;22.98;nan
59375;BME280;45172;55.006;73.460;2022-09-21T12:51:57;100714.94;;;22.70;nan
59375;BME280;45172;55.006;73.460;2022-09-21T12:54:40;100736.19;;;22.51;nan
59375;BME280;45172;55.006;73.460;2022-09-21T13:02:36;100725.03;;;21.96;nan
59375;BME280;45172;55.006;73.460;2022-09-21T13:10:45;100729.00;;;21.43;nan
59375;BME280;45172;55.006;73.460;2022-09-21T13:13:35;100722.19;;;21.26;nan
59375;BME280;45172;55.006;73.460;2022-09-21T13:16:05;100729.66;;;21.15;nan
59375;BME280;45172;55.006;73.460;2022-09-21T13:18:37;100731.69;;;21.03;nan
59375;BME280;45172;55.006;73.460;2022-09-21T13:21:18;100732.97;;;20.85;nan
59375;BME280;45172;55.006;73.460;2022-09-21T13:23:54;100736.63;;;20.81;nan
59375;BME280;45172;55.006;73.460;2022-09-21T13:26:38;100734.16;;;20.70;nan
59375;BME280;45172;55.006;73.460;2022-09-21T13:29:27;100723.94;;;20.40;nan
59375;BME280;45172;55.006;73.460;2022-09-21T13:34:43;100705.66;;;20.14;nan
59375;BME280;45172;55.006;73.460;2022-09-21T13:47:44;100745.91;;;19.62;nan
59375;BME280;45172;55.006;73.460;2022-09-21T13:50:26;100744.31;;;19.50;nan
59375;BME280;45172;55.006;73.460;2022-09-21T13:52:59;100740.03;;;19.35;nan
59375;BME280;45172;55.006;73.460;2022-09-21T13:55:39;100744.69;;;19.22;nan
59375;BME280;45172;55.006;73.460;2022-09-21T13:58:28;100724.38;;;19.01;nan
59375;BME280;45172;55.006;73.460;2022-09-21T14:01:14;100749.47;;;18.97;nan
59375;BME280;45172;55.006;73.460;2022-09-21T14:03:44;100739.72;;;18.93;nan
59375;BME280;45172;55.006;73.460;2022-09-21T14:06:24;100749.66;;;18.84;nan
59375;BME280;45172;55.006;73.460;2022-09-21T14:08:56;100748.81;;;18.79;nan
59375;BME280;45172;55.006;73.460;2022-09-21T14:11:41;100749.91;;;18.61;nan
59375;BME280;45172;55.006;73.460;2022-09-21T14:24:34;100755.31;;;18.58;nan
59375;BME280;45172;55.006;73.460;2022-09-21T14:32:44;100762.84;;;19.05;nan
59375;BME280;45172;55.006;73.460;2022-09-21T14:35:23;100760.09;;;19.11;nan
59375;BME280;45172;55.006;73.460;2022-09-21T14:37:53;100761.59;;;19.32;nan
59375;BME280;45172;55.006;73.460;2022-09-21T14:40:37;100754.53;;;19.23;nan
59375;BME280;45172;55.006;73.460;2022-09-21T14:43:11;100762.41;;;19.37;nan
59375;BME280;45172;55.006;73.460;2022-09-21T14:59:44;100738.06;;;18.81;nan
59375;BME280;45172;55.006;73.460;2022-09-21T15:02:22;100765.91;;;18.70;nan
59375;BME280;45172;55.006;73.460;2022-09-21T15:16:33;100770.53;;;17.48;nan
59375;BME280;45172;55.006;73.460;2022-09-21T15:21:40;100736.84;;;17.00;nan
59375;BME280;45172;55.006;73.460;2022-09-21T15:27:12;100782.41;;;16.84;nan
59375;BME280;45172;55.006;73.460;2022-09-21T15:29:41;100784.31;;;16.45;nan
59375;BME280;45172;55.006;73.460;2022-09-21T15:32:07;100785.16;;;16.60;nan
59375;BME280;45172;55.006;73.460;2022-09-21T15:34:34;100786.06;;;16.59;nan
59375;BME280;45172;55.006;73.460;2022-09-21T15:37:14;100752.25;;;16.28;nan
59375;BME280;45172;55.006;73.460;2022-09-21T15:39:58;100770.06;;;16.24;nan
59375;BME280;45172;55.006;73.460;2022-09-21T15:42:24;100777.19;;;16.32;nan
59375;BME280;45172;55.006;73.460;2022-09-21T15:45:09;100778.97;;;16.19;nan
59375;BME280;45172;55.006;73.460;2022-09-21T15:47:47;100777.22;;;16.14;nan
59375;BME280;45172;55.006;73.460;2022-09-21T15:50:21;100780.78;;;16.09;nan
59375;BME280;45172;55.006;73.460;2022-09-21T15:52:58;100778.09;;;15.93;nan
59375;BME280;45172;55.006;73.460;2022-09-21T15:55:27;100754.00;;;15.82;nan
59375;BME280;45172;55.006;73.460;2022-09-21T15:58:21;100780.75;;;15.90;nan
59375;BME280;45172;55.006;73.460;2022-09-21T16:00:54;100754.94;;;15.73;nan
59375;BME280;45172;55.006;73.460;2022-09-21T16:03:22;100775.41;;;15.81;nan
59375;BME280;45172;55.006;73.460;2022-09-21T16:05:55;100782.53;;;15.72;nan
59375;BME280;45172;55.006;73.460;2022-09-21T16:08:33;100781.59;;;15.66;nan
59375;BME280;45172;55.006;73.460;2022-09-21T16:11:31;100782.47;;;15.49;nan
59375;BME280;45172;55.006;73.460;2022-09-21T16:14:11;100789.59;;;15.48;nan
59375;BME280;45172;55.006;73.460;2022-09-21T16:17:21;100785.13;;;15.38;nan
59375;BME280;45172;55.006;73.460;2022-09-21T16:22:35;100769.09;;;15.26;nan
59375;BME280;45172;55.006;73.460;2022-09-21T16:25:23;100779.72;;;15.21;nan
59375;BME280;45172;55.006;73.460;2022-09-21T16:27:58;100785.06;;;15.19;nan
59375;BME280;45172;55.006;73.460;2022-09-21T16:30:45;100787.69;;;15.04;nan
59375;BME280;45172;55.006;73.460;2022-09-21T16:33:35;100785.00;;;14.99;nan
59375;BME280;45172;55.006;73.460;2022-09-21T16:38:59;100786.78;;;15.03;nan
59375;BME280;45172;55.006;73.460;2022-09-21T16:41:34;100784.97;;;14.95;nan
59375;BME280;45172;55.006;73.460;2022-09-21T16:44:16;100784.06;;;14.97;nan
59375;BME280;45172;55.006;73.460;2022-09-21T16:46:53;100788.53;;;14.95;nan
59375;BME280;45172;55.006;73.460;2022-09-21T16:49:20;100789.41;;;14.91;nan
59375;BME280;45172;55.006;73.460;2022-09-21T16:51:48;100778.69;;;14.83;nan
59375;BME280;45172;55.006;73.460;2022-09-21T16:54:16;100774.25;;;14.82;nan
59375;BME280;45172;55.006;73.460;2022-09-21T16:56:48;100784.00;;;14.77;nan
59375;BME280;45172;55.006;73.460;2022-09-21T16:59:16;100734.09;;;14.56;nan
59375;BME280;45172;55.006;73.460;2022-09-21T17:01:53;100776.84;;;14.73;nan
59375;BME280;45172;55.006;73.460;2022-09-21T17:04:33;100786.59;;;14.71;nan
59375;BME280;45172;55.006;73.460;2022-09-21T17:07:00;100776.78;;;14.62;nan
59375;BME280;45172;55.006;73.460;2022-09-21T17:09:36;100785.66;;;14.61;nan
59375;BME280;45172;55.006;73.460;2022-09-21T17:12:05;100786.56;;;14.60;nan
59375;BME280;45172;55.006;73.460;2022-09-21T17:14:34;100748.16;;;14.36;nan
59375;BME280;45172;55.006;73.460;2022-09-21T17:17:20;100775.72;;;14.35;nan
59375;BME280;45172;55.006;73.460;2022-09-21T17:19:54;100789.97;;;14.43;nan
59375;BME280;45172;55.006;73.460;2022-09-21T17:22:27;100793.53;;;14.42;nan
59375;BME280;45172;55.006;73.460;2022-09-21T17:24:55;100792.63;;;14.37;nan
59375;BME280;45172;55.006;73.460;2022-09-21T17:27:32;100784.53;;;14.28;nan
59375;BME280;45172;55.006;73.460;2022-09-21T17:29:58;100784.50;;;14.23;nan
59375;BME280;45172;55.006;73.460;2022-09-21T17:32:35;100789.84;;;14.24;nan
59375;BME280;45172;55.006;73.460;2022-09-21T17:37:49;100792.47;;;14.15;nan
59375;BME280;45172;55.006;73.460;2022-09-21T17:40:15;100793.34;;;14.14;nan
59375;BME280;45172;55.006;73.460;2022-09-21T17:42:42;100771.97;;;14.06;nan
59375;BME280;45172;55.006;73.460;2022-09-21T17:47:54;100783.53;;;14.07;nan
59375;BME280;45172;55.006;73.460;2022-09-21T17:50:26;100783.53;;;14.07;nan
59375;BME280;45172;55.006;73.460;2022-09-21T17:52:54;100779.03;;;14.03;nan
59375;BME280;45172;55.006;73.460;2022-09-21T17:55:55;100786.16;;;14.02;nan
59375;BME280;45172;55.006;73.460;2022-09-21T17:58:46;100793.16;;;13.92;nan
59375;BME280;45172;55.006;73.460;2022-09-21T18:01:47;100795.88;;;13.99;nan
59375;BME280;45172;55.006;73.460;2022-09-21T18:04:08;100795.81;;;13.92;nan
59375;BME280;45172;55.006;73.460;2022-09-21T18:06:38;100794.00;;;13.88;nan
59375;BME280;45172;55.006;73.460;2022-09-21T18:09:04;100760.06;;;13.64;nan
59375;BME280;45172;55.006;73.460;2022-09-21T18:11:56;100791.22;;;13.74;nan
59375;BME280;45172;55.006;73.460;2022-09-21T18:17:41;100786.69;;;13.64;nan
59375;BME280;45172;55.006;73.460;2022-09-21T18:25:50;100780.47;;;13.66;nan
59375;BME280;45172;55.006;73.460;2022-09-21T18:36:28;100767.91;;;13.50;nan
59375;BME280;45172;55.006;73.460;2022-09-21T18:39:31;100761.63;;;13.45;nan
59375;BME280;45172;55.006;73.460;2022-09-21T18:45:01;100732.19;;;13.31;nan
59375;BME280;45172;55.006;73.460;2022-09-21T18:50:32;100763.25;;;13.32;nan
59375;BME280;45172;55.006;73.460;2022-09-21T18:55:43;100738.28;;;13.19;nan
59375;BME280;45172;55.006;73.460;2022-09-21T18:58:09;100765.00;;;13.29;nan
59375;BME280;45172;55.006;73.460;2022-09-21T19:00:36;100718.56;;;12.99;nan
59375;BME280;45172;55.006;73.460;2022-09-21T19:03:14;100764.91;;;13.20;nan
59375;BME280;45172;55.006;73.460;2022-09-21T19:11:21;100773.59;;;13.07;nan
59375;BME280;45172;55.006;73.460;2022-09-21T19:14:15;100776.22;;;13.02;nan
59375;BME280;45172;55.006;73.460;2022-09-21T19:20:11;100782.31;;;12.95;nan
59375;BME280;45172;55.006;73.460;2022-09-21T19:26:15;100786.59;;;12.82;nan
59375;BME280;45172;55.006;73.460;2022-09-21T19:31:52;100782.22;;;12.85;nan
59375;BME280;45172;55.006;73.460;2022-09-21T19:34:18;100745.63;;;12.66;nan
59375;BME280;45172;55.006;73.460;2022-09-21T19:36:45;100774.22;;;12.82;nan